Schedule Details


Flight Number: CTN451
Departure: Schiphol (EHAM) at 11:20
Arrival: Franjo Tudman (LDZA) at 13:10
Route: EDUPO UZ738 NAPRO Z739 DEPAD UZ738 MISGO UZ741 GMH UL603 LATLO DCT BERTA DCT ARGOM

Weather Information
EHAM 221555Z 15008KT CAVOK 25/15 Q1005 NOSIG
LDZA 221530Z 21005KT CAVOK 19/11 Q1016 NOSIG
Schedule Frequency

Route Map